sensor_id;sensor_type;location;lat;lon;timestamp;temperature;humidity
5476;DHT22;2760;50.000;9.194;2022-07-10T00:00:41;15.20;99.90
5476;DHT22;2760;50.000;9.194;2022-07-10T00:03:08;15.30;99.90
5476;DHT22;2760;50.000;9.194;2022-07-10T00:05:36;15.50;99.90
5476;DHT22;2760;50.000;9.194;2022-07-10T00:08:03;15.60;99.90
5476;DHT22;2760;50.000;9.194;2022-07-10T00:10:32;15.60;99.90
5476;DHT22;2760;50.000;9.194;2022-07-10T00:12:59;15.60;99.90
5476;DHT22;2760;50.000;9.194;2022-07-10T00:15:26;15.60;99.90
5476;DHT22;2760;50.000;9.194;2022-07-10T00:17:53;15.60;99.90
5476;DHT22;2760;50.000;9.194;2022-07-10T00:20:20;15.40;99.90
5476;DHT22;2760;50.000;9.194;2022-07-10T00:22:46;15.40;99.90
5476;DHT22;2760;50.000;9.194;2022-07-10T00:25:13;15.50;99.90
5476;DHT22;2760;50.000;9.194;2022-07-10T00:27:42;15.40;99.90
5476;DHT22;2760;50.000;9.194;2022-07-10T00:30:10;15.50;99.90
5476;DHT22;2760;50.000;9.194;2022-07-10T00:32:37;15.40;99.90
5476;DHT22;2760;50.000;9.194;2022-07-10T00:35:05;15.50;99.90
5476;DHT22;2760;50.000;9.194;2022-07-10T00:37:32;15.40;99.90
5476;DHT22;2760;50.000;9.194;2022-07-10T00:40:00;15.60;99.90
5476;DHT22;2760;50.000;9.194;2022-07-10T00:42:27;15.60;99.90
5476;DHT22;2760;50.000;9.194;2022-07-10T00:44:55;15.60;99.90
5476;DHT22;2760;50.000;9.194;2022-07-10T00:47:22;15.50;99.90
5476;DHT22;2760;50.000;9.194;2022-07-10T00:49:49;15.50;99.90
5476;DHT22;2760;50.000;9.194;2022-07-10T00:52:17;15.20;99.90
5476;DHT22;2760;50.000;9.194;2022-07-10T00:54:45;13.50;99.90
5476;DHT22;2760;50.000;9.194;2022-07-10T00:57:13;15.10;99.90
5476;DHT22;2760;50.000;9.194;2022-07-10T00:59:41;16.00;99.90
5476;DHT22;2760;50.000;9.194;2022-07-10T01:02:10;15.10;99.90
5476;DHT22;2760;50.000;9.194;2022-07-10T01:04:37;15.10;99.90
5476;DHT22;2760;50.000;9.194;2022-07-10T01:07:05;15.00;99.90
5476;DHT22;2760;50.000;9.194;2022-07-10T01:09:32;15.80;99.90
5476;DHT22;2760;50.000;9.194;2022-07-10T01:12:00;14.80;99.90
5476;DHT22;2760;50.000;9.194;2022-07-10T01:14:28;14.80;99.90
5476;DHT22;2760;50.000;9.194;2022-07-10T01:16:55;14.90;99.90
5476;DHT22;2760;50.000;9.194;2022-07-10T01:19:24;14.80;99.90
5476;DHT22;2760;50.000;9.194;2022-07-10T01:21:53;15.00;99.90
5476;DHT22;2760;50.000;9.194;2022-07-10T01:24:19;15.00;99.90
5476;DHT22;2760;50.000;9.194;2022-07-10T01:26:46;15.10;99.90
5476;DHT22;2760;50.000;9.194;2022-07-10T01:29:13;15.00;99.90
5476;DHT22;2760;50.000;9.194;2022-07-10T01:31:41;14.80;99.90
5476;DHT22;2760;50.000;9.194;2022-07-10T01:34:08;14.80;99.90
5476;DHT22;2760;50.000;9.194;2022-07-10T01:36:36;14.90;99.90
5476;DHT22;2760;50.000;9.194;2022-07-10T01:39:05;14.90;99.90
5476;DHT22;2760;50.000;9.194;2022-07-10T01:41:32;14.90;99.90
5476;DHT22;2760;50.000;9.194;2022-07-10T01:44:00;14.90;99.90
5476;DHT22;2760;50.000;9.194;2022-07-10T01:46:27;14.90;99.90
5476;DHT22;2760;50.000;9.194;2022-07-10T01:48:54;16.00;99.90
5476;DHT22;2760;50.000;9.194;2022-07-10T01:51:21;14.60;99.90
5476;DHT22;2760;50.000;9.194;2022-07-10T01:53:49;14.50;99.90
5476;DHT22;2760;50.000;9.194;2022-07-10T01:56:17;14.40;99.90
5476;DHT22;2760;50.000;9.194;2022-07-10T01:58:44;14.40;99.90
5476;DHT22;2760;50.000;9.194;2022-07-10T02:01:11;14.40;99.90
5476;DHT22;2760;50.000;9.194;2022-07-10T02:03:39;14.40;99.90
5476;DHT22;2760;50.000;9.194;2022-07-10T02:06:23;14.40;99.90
5476;DHT22;2760;50.000;9.194;2022-07-10T02:08:51;14.50;99.90
5476;DHT22;2760;50.000;9.194;2022-07-10T02:11:19;14.30;99.90
5476;DHT22;2760;50.000;9.194;2022-07-10T02:13:46;14.10;99.90
5476;DHT22;2760;50.000;9.194;2022-07-10T02:16:13;14.10;99.90
5476;DHT22;2760;50.000;9.194;2022-07-10T02:18:40;14.20;99.90
5476;DHT22;2760;50.000;9.194;2022-07-10T02:21:07;14.10;99.90
5476;DHT22;2760;50.000;9.194;2022-07-10T02:23:35;14.10;99.90
5476;DHT22;2760;50.000;9.194;2022-07-10T02:26:02;14.20;99.90
5476;DHT22;2760;50.000;9.194;2022-07-10T02:28:31;14.30;99.90
5476;DHT22;2760;50.000;9.194;2022-07-10T02:30:58;14.20;99.90
5476;DHT22;2760;50.000;9.194;2022-07-10T02:33:25;14.10;99.90
5476;DHT22;2760;50.000;9.194;2022-07-10T02:35:52;14.10;99.90
5476;DHT22;2760;50.000;9.194;2022-07-10T02:38:19;14.10;99.90
5476;DHT22;2760;50.000;9.194;2022-07-10T02:40:46;14.10;99.90
5476;DHT22;2760;50.000;9.194;2022-07-10T02:43:14;14.00;99.90
5476;DHT22;2760;50.000;9.194;2022-07-10T02:45:43;14.20;99.90
5476;DHT22;2760;50.000;9.194;2022-07-10T02:48:10;14.00;99.90
5476;DHT22;2760;50.000;9.194;2022-07-10T02:50:37;14.20;99.90
5476;DHT22;2760;50.000;9.194;2022-07-10T02:53:04;14.20;99.90
5476;DHT22;2760;50.000;9.194;2022-07-10T02:55:32;14.00;99.90
5476;DHT22;2760;50.000;9.194;2022-07-10T02:57:59;13.80;99.90
5476;DHT22;2760;50.000;9.194;2022-07-10T03:00:27;13.80;99.90
5476;DHT22;2760;50.000;9.194;2022-07-10T03:02:56;13.70;99.90
5476;DHT22;2760;50.000;9.194;2022-07-10T03:05:23;13.60;99.90
5476;DHT22;2760;50.000;9.194;2022-07-10T03:07:50;13.70;99.90
5476;DHT22;2760;50.000;9.194;2022-07-10T03:10:17;13.70;99.90
5476;DHT22;2760;50.000;9.194;2022-07-10T03:12:44;14.00;99.90
5476;DHT22;2760;50.000;9.194;2022-07-10T03:15:14;14.00;99.90
5476;DHT22;2760;50.000;9.194;2022-07-10T03:17:42;14.00;99.90
5476;DHT22;2760;50.000;9.194;2022-07-10T03:20:11;13.90;99.90
5476;DHT22;2760;50.000;9.194;2022-07-10T03:22:38;13.80;99.90
5476;DHT22;2760;50.000;9.194;2022-07-10T03:25:06;14.30;99.90
5476;DHT22;2760;50.000;9.194;2022-07-10T03:27:33;13.50;99.90
5476;DHT22;2760;50.000;9.194;2022-07-10T03:30:00;13.60;99.90
5476;DHT22;2760;50.000;9.194;2022-07-10T03:32:27;13.60;99.90
5476;DHT22;2760;50.000;9.194;2022-07-10T03:34:54;13.70;99.90
5476;DHT22;2760;50.000;9.194;2022-07-10T03:37:23;13.60;99.90
5476;DHT22;2760;50.000;9.194;2022-07-10T03:39:50;13.50;99.90
5476;DHT22;2760;50.000;9.194;2022-07-10T03:42:17;13.50;99.90
5476;DHT22;2760;50.000;9.194;2022-07-10T03:44:44;13.60;99.90
5476;DHT22;2760;50.000;9.194;2022-07-10T03:47:11;13.60;99.90
5476;DHT22;2760;50.000;9.194;2022-07-10T03:49:38;13.60;99.90
5476;DHT22;2760;50.000;9.194;2022-07-10T03:52:07;13.70;99.90
5476;DHT22;2760;50.000;9.194;2022-07-10T03:54:35;13.70;99.90
5476;DHT22;2760;50.000;9.194;2022-07-10T03:57:04;13.60;99.90
5476;DHT22;2760;50.000;9.194;2022-07-10T03:59:48;13.70;99.90
5476;DHT22;2760;50.000;9.194;2022-07-10T04:02:15;15.10;99.90
5476;DHT22;2760;50.000;9.194;2022-07-10T04:04:42;13.60;99.90
5476;DHT22;2760;50.000;9.194;2022-07-10T04:07:09;13.90;99.90
5476;DHT22;2760;50.000;9.194;2022-07-10T04:09:39;13.80;99.90
5476;DHT22;2760;50.000;9.194;2022-07-10T04:12:06;13.80;99.90
5476;DHT22;2760;50.000;9.194;2022-07-10T04:14:33;13.90;99.90
5476;DHT22;2760;50.000;9.194;2022-07-10T04:17:00;13.90;99.90
5476;DHT22;2760;50.000;9.194;2022-07-10T04:19:27;13.90;99.90
5476;DHT22;2760;50.000;9.194;2022-07-10T04:21:54;14.20;99.90
5476;DHT22;2760;50.000;9.194;2022-07-10T04:24:21;14.40;99.90
5476;DHT22;2760;50.000;9.194;2022-07-10T04:26:50;15.30;99.90
5476;DHT22;2760;50.000;9.194;2022-07-10T04:29:16;14.50;99.90
5476;DHT22;2760;50.000;9.194;2022-07-10T04:31:43;14.70;99.90
5476;DHT22;2760;50.000;9.194;2022-07-10T04:34:10;14.80;99.90
5476;DHT22;2760;50.000;9.194;2022-07-10T04:36:37;15.00;99.90
5476;DHT22;2760;50.000;9.194;2022-07-10T04:39:04;15.10;99.90
5476;DHT22;2760;50.000;9.194;2022-07-10T04:41:31;14.90;99.90
5476;DHT22;2760;50.000;9.194;2022-07-10T04:44:00;14.70;99.90
5476;DHT22;2760;50.000;9.194;2022-07-10T04:46:26;14.90;99.90
5476;DHT22;2760;50.000;9.194;2022-07-10T04:48:53;14.80;99.90
5476;DHT22;2760;50.000;9.194;2022-07-10T04:51:20;14.70;99.90
5476;DHT22;2760;50.000;9.194;2022-07-10T04:53:49;14.70;99.90
5476;DHT22;2760;50.000;9.194;2022-07-10T04:56:16;14.70;99.90
5476;DHT22;2760;50.000;9.194;2022-07-10T04:58:43;14.70;99.90
5476;DHT22;2760;50.000;9.194;2022-07-10T05:01:13;13.90;99.90
5476;DHT22;2760;50.000;9.194;2022-07-10T05:03:40;14.50;99.90
5476;DHT22;2760;50.000;9.194;2022-07-10T05:06:07;14.70;99.90
5476;DHT22;2760;50.000;9.194;2022-07-10T05:08:34;15.00;99.90
5476;DHT22;2760;50.000;9.194;2022-07-10T05:11:01;15.30;99.90
5476;DHT22;2760;50.000;9.194;2022-07-10T05:13:28;15.70;99.90
5476;DHT22;2760;50.000;9.194;2022-07-10T05:15:56;16.00;99.90
5476;DHT22;2760;50.000;9.194;2022-07-10T05:18:24;16.30;99.90
5476;DHT22;2760;50.000;9.194;2022-07-10T05:20:51;16.30;99.90
5476;DHT22;2760;50.000;9.194;2022-07-10T05:23:18;16.30;99.90
5476;DHT22;2760;50.000;9.194;2022-07-10T05:25:45;15.20;99.90
5476;DHT22;2760;50.000;9.194;2022-07-10T05:28:13;16.80;99.90
5476;DHT22;2760;50.000;9.194;2022-07-10T05:30:40;16.80;99.90
5476;DHT22;2760;50.000;9.194;2022-07-10T05:33:07;16.50;99.90
5476;DHT22;2760;50.000;9.194;2022-07-10T05:35:36;16.60;99.90
5476;DHT22;2760;50.000;9.194;2022-07-10T05:38:03;16.80;99.90
5476;DHT22;2760;50.000;9.194;2022-07-10T05:40:30;16.30;99.90
5476;DHT22;2760;50.000;9.194;2022-07-10T05:42:57;16.50;99.90
5476;DHT22;2760;50.000;9.194;2022-07-10T05:45:24;16.50;99.90
5476;DHT22;2760;50.000;9.194;2022-07-10T05:47:51;16.60;99.90
5476;DHT22;2760;50.000;9.194;2022-07-10T05:50:18;16.50;99.90
5476;DHT22;2760;50.000;9.194;2022-07-10T05:52:47;16.60;99.90
5476;DHT22;2760;50.000;9.194;2022-07-10T05:55:14;17.30;99.90
5476;DHT22;2760;50.000;9.194;2022-07-10T05:57:41;17.60;99.90
5476;DHT22;2760;50.000;9.194;2022-07-10T06:00:09;17.90;99.90
5476;DHT22;2760;50.000;9.194;2022-07-10T06:02:39;17.80;99.90
5476;DHT22;2760;50.000;9.194;2022-07-10T06:05:07;17.80;99.90
5476;DHT22;2760;50.000;9.194;2022-07-10T06:07:34;18.20;99.90
5476;DHT22;2760;50.000;9.194;2022-07-10T06:10:03;17.50;99.90
5476;DHT22;2760;50.000;9.194;2022-07-10T06:12:31;17.60;99.90
5476;DHT22;2760;50.000;9.194;2022-07-10T06:14:58;17.80;99.90
5476;DHT22;2760;50.000;9.194;2022-07-10T06:17:25;18.10;99.90
5476;DHT22;2760;50.000;9.194;2022-07-10T06:19:52;18.50;99.90
5476;DHT22;2760;50.000;9.194;2022-07-10T06:22:20;18.20;99.90
5476;DHT22;2760;50.000;9.194;2022-07-10T06:24:59;18.30;99.90
5476;DHT22;2760;50.000;9.194;2022-07-10T06:27:28;18.30;99.90
5476;DHT22;2760;50.000;9.194;2022-07-10T06:29:56;18.30;99.90
5476;DHT22;2760;50.000;9.194;2022-07-10T06:32:23;18.40;99.90
5476;DHT22;2760;50.000;9.194;2022-07-10T06:34:51;18.60;99.90
5476;DHT22;2760;50.000;9.194;2022-07-10T06:37:18;19.00;99.90
5476;DHT22;2760;50.000;9.194;2022-07-10T06:39:46;19.10;99.30
5476;DHT22;2760;50.000;9.194;2022-07-10T06:42:14;19.00;98.70
5476;DHT22;2760;50.000;9.194;2022-07-10T06:44:43;18.90;98.30
5476;DHT22;2760;50.000;9.194;2022-07-10T06:47:10;18.70;97.90
5476;DHT22;2760;50.000;9.194;2022-07-10T06:49:56;18.90;97.80
5476;DHT22;2760;50.000;9.194;2022-07-10T06:52:24;18.70;98.40
5476;DHT22;2760;50.000;9.194;2022-07-10T06:54:52;18.70;98.50
5476;DHT22;2760;50.000;9.194;2022-07-10T06:57:19;18.40;97.50
5476;DHT22;2760;50.000;9.194;2022-07-10T06:59:48;18.20;98.00
5476;DHT22;2760;50.000;9.194;2022-07-10T07:02:16;18.60;97.50
5476;DHT22;2760;50.000;9.194;2022-07-10T07:04:43;19.70;96.50
5476;DHT22;2760;50.000;9.194;2022-07-10T07:07:11;19.40;96.20
5476;DHT22;2760;50.000;9.194;2022-07-10T07:09:38;19.40;95.50
5476;DHT22;2760;50.000;9.194;2022-07-10T07:12:06;19.80;94.60
5476;DHT22;2760;50.000;9.194;2022-07-10T07:14:33;18.70;93.60
5476;DHT22;2760;50.000;9.194;2022-07-10T07:17:04;18.70;94.30
5476;DHT22;2760;50.000;9.194;2022-07-10T07:19:34;18.80;94.30
5476;DHT22;2760;50.000;9.194;2022-07-10T07:22:15;19.70;93.30
5476;DHT22;2760;50.000;9.194;2022-07-10T07:24:59;19.70;91.90
5476;DHT22;2760;50.000;9.194;2022-07-10T07:27:26;19.20;93.00
5476;DHT22;2760;50.000;9.194;2022-07-10T07:29:53;18.60;93.60
5476;DHT22;2760;50.000;9.194;2022-07-10T07:32:21;19.00;93.00
5476;DHT22;2760;50.000;9.194;2022-07-10T07:34:48;18.90;93.20
5476;DHT22;2760;50.000;9.194;2022-07-10T07:37:15;20.00;93.70
5476;DHT22;2760;50.000;9.194;2022-07-10T07:39:43;18.80;93.20
5476;DHT22;2760;50.000;9.194;2022-07-10T07:42:10;19.20;92.80
5476;DHT22;2760;50.000;9.194;2022-07-10T07:44:37;19.30;92.50
5476;DHT22;2760;50.000;9.194;2022-07-10T07:47:04;19.40;92.60
5476;DHT22;2760;50.000;9.194;2022-07-10T07:49:32;19.40;92.20
5476;DHT22;2760;50.000;9.194;2022-07-10T07:51:59;18.20;93.10
5476;DHT22;2760;50.000;9.194;2022-07-10T07:54:26;19.10;93.50
5476;DHT22;2760;50.000;9.194;2022-07-10T07:56:53;18.90;93.30
5476;DHT22;2760;50.000;9.194;2022-07-10T07:59:20;19.40;93.00
5476;DHT22;2760;50.000;9.194;2022-07-10T08:01:47;19.00;93.00
5476;DHT22;2760;50.000;9.194;2022-07-10T08:04:14;18.50;93.00
5476;DHT22;2760;50.000;9.194;2022-07-10T08:06:43;18.30;93.70
5476;DHT22;2760;50.000;9.194;2022-07-10T08:09:09;18.10;93.40
5476;DHT22;2760;50.000;9.194;2022-07-10T08:11:37;18.30;94.60
5476;DHT22;2760;50.000;9.194;2022-07-10T08:14:04;18.60;94.20
5476;DHT22;2760;50.000;9.194;2022-07-10T08:16:31;18.60;94.30
5476;DHT22;2760;50.000;9.194;2022-07-10T08:18:58;19.90;94.20
5476;DHT22;2760;50.000;9.194;2022-07-10T08:21:25;18.90;93.70
5476;DHT22;2760;50.000;9.194;2022-07-10T08:23:53;19.10;93.20
5476;DHT22;2760;50.000;9.194;2022-07-10T08:26:20;19.00;93.10
5476;DHT22;2760;50.000;9.194;2022-07-10T08:28:48;19.20;93.40
5476;DHT22;2760;50.000;9.194;2022-07-10T08:31:15;19.10;91.90
5476;DHT22;2760;50.000;9.194;2022-07-10T08:33:42;18.90;93.10
5476;DHT22;2760;50.000;9.194;2022-07-10T08:36:09;18.90;93.00
5476;DHT22;2760;50.000;9.194;2022-07-10T08:38:36;19.20;93.00
5476;DHT22;2760;50.000;9.194;2022-07-10T08:41:05;19.20;93.00
5476;DHT22;2760;50.000;9.194;2022-07-10T08:43:33;19.10;93.10
5476;DHT22;2760;50.000;9.194;2022-07-10T08:46:00;19.20;93.10
5476;DHT22;2760;50.000;9.194;2022-07-10T08:48:28;19.20;93.60
5476;DHT22;2760;50.000;9.194;2022-07-10T08:51:03;19.20;93.50
5476;DHT22;2760;50.000;9.194;2022-07-10T08:53:31;19.00;92.00
5476;DHT22;2760;50.000;9.194;2022-07-10T08:55:59;18.90;92.50
5476;DHT22;2760;50.000;9.194;2022-07-10T08:58:27;18.90;92.70
5476;DHT22;2760;50.000;9.194;2022-07-10T09:00:57;18.70;93.00
5476;DHT22;2760;50.000;9.194;2022-07-10T09:03:24;18.80;92.80
5476;DHT22;2760;50.000;9.194;2022-07-10T09:05:54;18.40;93.50
5476;DHT22;2760;50.000;9.194;2022-07-10T09:08:22;18.50;93.40
5476;DHT22;2760;50.000;9.194;2022-07-10T09:10:49;18.30;93.30
5476;DHT22;2760;50.000;9.194;2022-07-10T09:13:17;18.30;94.00
5476;DHT22;2760;50.000;9.194;2022-07-10T09:15:49;18.20;93.70
5476;DHT22;2760;50.000;9.194;2022-07-10T09:18:19;18.60;93.90
5476;DHT22;2760;50.000;9.194;2022-07-10T09:20:50;18.90;93.50
5476;DHT22;2760;50.000;9.194;2022-07-10T09:23:19;18.80;93.40
5476;DHT22;2760;50.000;9.194;2022-07-10T09:25:46;19.10;94.30
5476;DHT22;2760;50.000;9.194;2022-07-10T09:28:17;19.20;93.40
5476;DHT22;2760;50.000;9.194;2022-07-10T09:30:46;19.30;93.20
5476;DHT22;2760;50.000;9.194;2022-07-10T09:33:20;19.20;93.20
5476;DHT22;2760;50.000;9.194;2022-07-10T09:36:00;19.40;93.30
5476;DHT22;2760;50.000;9.194;2022-07-10T09:38:53;19.00;93.80
5476;DHT22;2760;50.000;9.194;2022-07-10T09:41:25;19.80;92.90
5476;DHT22;2760;50.000;9.194;2022-07-10T09:43:54;20.10;93.20
5476;DHT22;2760;50.000;9.194;2022-07-10T09:46:24;19.50;93.10
5476;DHT22;2760;50.000;9.194;2022-07-10T09:49:09;20.50;93.60
5476;DHT22;2760;50.000;9.194;2022-07-10T09:51:38;21.10;91.70
5476;DHT22;2760;50.000;9.194;2022-07-10T09:54:07;21.10;91.80
5476;DHT22;2760;50.000;9.194;2022-07-10T09:56:40;21.00;91.70
5476;DHT22;2760;50.000;9.194;2022-07-10T09:59:10;21.00;91.70
5476;DHT22;2760;50.000;9.194;2022-07-10T10:01:43;21.10;92.60
5476;DHT22;2760;50.000;9.194;2022-07-10T10:04:13;21.90;92.00
5476;DHT22;2760;50.000;9.194;2022-07-10T10:06:41;22.00;91.40
5476;DHT22;2760;50.000;9.194;2022-07-10T10:09:12;21.50;91.90
5476;DHT22;2760;50.000;9.194;2022-07-10T10:11:44;21.20;92.00
5476;DHT22;2760;50.000;9.194;2022-07-10T10:14:12;21.30;92.10
5476;DHT22;2760;50.000;9.194;2022-07-10T10:16:43;21.70;91.50
5476;DHT22;2760;50.000;9.194;2022-07-10T10:19:13;21.60;91.40
5476;DHT22;2760;50.000;9.194;2022-07-10T10:21:59;22.10;91.70
5476;DHT22;2760;50.000;9.194;2022-07-10T10:24:31;21.60;91.00
5476;DHT22;2760;50.000;9.194;2022-07-10T10:26:58;21.50;91.40
5476;DHT22;2760;50.000;9.194;2022-07-10T10:29:26;20.60;91.90
5476;DHT22;2760;50.000;9.194;2022-07-10T10:31:54;20.30;93.00
5476;DHT22;2760;50.000;9.194;2022-07-10T10:34:42;21.00;92.80
5476;DHT22;2760;50.000;9.194;2022-07-10T10:37:28;21.50;92.40
5476;DHT22;2760;50.000;9.194;2022-07-10T10:39:59;21.60;91.30
5476;DHT22;2760;50.000;9.194;2022-07-10T10:42:34;21.70;91.60
5476;DHT22;2760;50.000;9.194;2022-07-10T10:45:23;20.00;92.00
5476;DHT22;2760;50.000;9.194;2022-07-10T10:48:00;20.60;93.50
5476;DHT22;2760;50.000;9.194;2022-07-10T10:50:39;21.50;92.20
5476;DHT22;2760;50.000;9.194;2022-07-10T10:53:13;21.70;91.60
5476;DHT22;2760;50.000;9.194;2022-07-10T10:55:42;21.50;91.60
5476;DHT22;2760;50.000;9.194;2022-07-10T10:58:36;21.20;91.70
5476;DHT22;2760;50.000;9.194;2022-07-10T11:01:04;21.40;91.60
5476;DHT22;2760;50.000;9.194;2022-07-10T11:03:32;21.10;91.90
5476;DHT22;2760;50.000;9.194;2022-07-10T11:06:00;20.80;92.20
5476;DHT22;2760;50.000;9.194;2022-07-10T11:08:37;20.30;92.50
5476;DHT22;2760;50.000;9.194;2022-07-10T11:11:39;20.30;92.60
5476;DHT22;2760;50.000;9.194;2022-07-10T11:14:09;20.40;92.80
5476;DHT22;2760;50.000;9.194;2022-07-10T11:16:45;20.60;92.60
5476;DHT22;2760;50.000;9.194;2022-07-10T11:19:19;20.30;92.90
5476;DHT22;2760;50.000;9.194;2022-07-10T11:24:51;20.60;92.70
5476;DHT22;2760;50.000;9.194;2022-07-10T11:27:29;20.70;92.20
5476;DHT22;2760;50.000;9.194;2022-07-10T11:30:00;20.60;92.70
5476;DHT22;2760;50.000;9.194;2022-07-10T11:32:28;20.30;92.10
5476;DHT22;2760;50.000;9.194;2022-07-10T11:34:55;21.10;92.00
5476;DHT22;2760;50.000;9.194;2022-07-10T11:37:23;21.40;91.60
5476;DHT22;2760;50.000;9.194;2022-07-10T11:40:08;21.30;91.80
5476;DHT22;2760;50.000;9.194;2022-07-10T11:42:52;21.60;92.20
5476;DHT22;2760;50.000;9.194;2022-07-10T11:45:29;20.60;92.30
5476;DHT22;2760;50.000;9.194;2022-07-10T11:47:56;20.80;92.40
5476;DHT22;2760;50.000;9.194;2022-07-10T11:50:24;20.90;92.30
5476;DHT22;2760;50.000;9.194;2022-07-10T11:52:54;20.70;92.30
5476;DHT22;2760;50.000;9.194;2022-07-10T11:55:22;20.90;92.30
5476;DHT22;2760;50.000;9.194;2022-07-10T11:57:49;21.10;92.90
5476;DHT22;2760;50.000;9.194;2022-07-10T12:00:23;21.90;91.90
5476;DHT22;2760;50.000;9.194;2022-07-10T12:02:51;21.50;92.10
5476;DHT22;2760;50.000;9.194;2022-07-10T12:05:35;21.10;91.70
5476;DHT22;2760;50.000;9.194;2022-07-10T12:08:04;21.00;92.80
5476;DHT22;2760;50.000;9.194;2022-07-10T12:10:33;21.20;92.30
5476;DHT22;2760;50.000;9.194;2022-07-10T12:13:07;21.60;91.90
5476;DHT22;2760;50.000;9.194;2022-07-10T12:15:35;20.90;92.00
5476;DHT22;2760;50.000;9.194;2022-07-10T12:18:04;20.90;92.50
5476;DHT22;2760;50.000;9.194;2022-07-10T12:20:33;21.60;91.90
5476;DHT22;2760;50.000;9.194;2022-07-10T12:23:05;22.70;90.60
5476;DHT22;2760;50.000;9.194;2022-07-10T12:25:33;22.70;90.90
5476;DHT22;2760;50.000;9.194;2022-07-10T12:28:00;23.20;90.40
5476;DHT22;2760;50.000;9.194;2022-07-10T12:30:38;22.50;90.10
5476;DHT22;2760;50.000;9.194;2022-07-10T12:33:10;22.00;91.20
5476;DHT22;2760;50.000;9.194;2022-07-10T12:35:49;21.20;91.30
5476;DHT22;2760;50.000;9.194;2022-07-10T12:38:19;21.10;91.80
5476;DHT22;2760;50.000;9.194;2022-07-10T12:40:47;21.50;92.10
5476;DHT22;2760;50.000;9.194;2022-07-10T12:43:24;21.30;92.10
5476;DHT22;2760;50.000;9.194;2022-07-10T12:46:08;22.40;92.60
5476;DHT22;2760;50.000;9.194;2022-07-10T12:48:35;23.00;90.90
5476;DHT22;2760;50.000;9.194;2022-07-10T12:51:24;22.60;90.90
5476;DHT22;2760;50.000;9.194;2022-07-10T12:53:53;23.30;90.50
5476;DHT22;2760;50.000;9.194;2022-07-10T12:56:30;23.50;89.90
5476;DHT22;2760;50.000;9.194;2022-07-10T12:58:57;23.90;90.70
5476;DHT22;2760;50.000;9.194;2022-07-10T13:01:26;23.80;89.60
5476;DHT22;2760;50.000;9.194;2022-07-10T13:03:58;24.00;90.00
5476;DHT22;2760;50.000;9.194;2022-07-10T13:06:26;23.90;88.00
5476;DHT22;2760;50.000;9.194;2022-07-10T13:08:55;23.40;89.00
5476;DHT22;2760;50.000;9.194;2022-07-10T13:11:22;22.30;89.10
5476;DHT22;2760;50.000;9.194;2022-07-10T13:13:49;23.40;90.00
5476;DHT22;2760;50.000;9.194;2022-07-10T13:16:16;23.40;89.20
5476;DHT22;2760;50.000;9.194;2022-07-10T13:18:43;23.20;90.10
5476;DHT22;2760;50.000;9.194;2022-07-10T13:21:10;23.40;89.40
5476;DHT22;2760;50.000;9.194;2022-07-10T13:23:38;23.60;90.30
5476;DHT22;2760;50.000;9.194;2022-07-10T13:26:06;24.40;89.50
5476;DHT22;2760;50.000;9.194;2022-07-10T13:28:34;24.50;88.60
5476;DHT22;2760;50.000;9.194;2022-07-10T13:31:01;24.80;85.70
5476;DHT22;2760;50.000;9.194;2022-07-10T13:33:28;24.60;87.80
5476;DHT22;2760;50.000;9.194;2022-07-10T13:35:55;24.30;86.80
5476;DHT22;2760;50.000;9.194;2022-07-10T13:38:22;23.60;89.60
5476;DHT22;2760;50.000;9.194;2022-07-10T13:40:51;23.60;88.80
5476;DHT22;2760;50.000;9.194;2022-07-10T13:43:19;23.70;88.30
5476;DHT22;2760;50.000;9.194;2022-07-10T13:45:47;23.50;87.50
5476;DHT22;2760;50.000;9.194;2022-07-10T13:48:15;23.60;88.90
5476;DHT22;2760;50.000;9.194;2022-07-10T13:50:44;22.40;90.10
5476;DHT22;2760;50.000;9.194;2022-07-10T13:53:12;23.20;90.10
5476;DHT22;2760;50.000;9.194;2022-07-10T13:55:40;23.60;88.60
5476;DHT22;2760;50.000;9.194;2022-07-10T13:58:07;23.40;88.50
5476;DHT22;2760;50.000;9.194;2022-07-10T14:00:36;23.30;89.10
5476;DHT22;2760;50.000;9.194;2022-07-10T14:03:03;23.40;88.70
5476;DHT22;2760;50.000;9.194;2022-07-10T14:05:31;23.50;89.20
5476;DHT22;2760;50.000;9.194;2022-07-10T14:07:58;23.50;88.70
5476;DHT22;2760;50.000;9.194;2022-07-10T14:10:26;23.60;89.20
5476;DHT22;2760;50.000;9.194;2022-07-10T14:12:53;23.70;88.50
5476;DHT22;2760;50.000;9.194;2022-07-10T14:15:20;23.70;88.80
5476;DHT22;2760;50.000;9.194;2022-07-10T14:17:50;23.70;88.70
5476;DHT22;2760;50.000;9.194;2022-07-10T14:20:17;23.50;88.30
5476;DHT22;2760;50.000;9.194;2022-07-10T14:22:44;23.70;87.80
5476;DHT22;2760;50.000;9.194;2022-07-10T14:25:13;23.50;87.40
5476;DHT22;2760;50.000;9.194;2022-07-10T14:27:40;22.90;88.20
5476;DHT22;2760;50.000;9.194;2022-07-10T14:30:08;22.10;90.00
5476;DHT22;2760;50.000;9.194;2022-07-10T14:32:35;21.90;90.40
5476;DHT22;2760;50.000;9.194;2022-07-10T14:35:05;22.30;90.10
5476;DHT22;2760;50.000;9.194;2022-07-10T14:37:32;22.60;90.50
5476;DHT22;2760;50.000;9.194;2022-07-10T14:40:00;22.80;90.00
5476;DHT22;2760;50.000;9.194;2022-07-10T14:42:27;22.90;89.70
5476;DHT22;2760;50.000;9.194;2022-07-10T14:44:54;22.80;89.90
5476;DHT22;2760;50.000;9.194;2022-07-10T14:47:21;22.80;90.20
5476;DHT22;2760;50.000;9.194;2022-07-10T14:49:48;22.70;90.10
5476;DHT22;2760;50.000;9.194;2022-07-10T14:52:17;22.60;90.20
5476;DHT22;2760;50.000;9.194;2022-07-10T14:54:47;22.60;89.80
5476;DHT22;2760;50.000;9.194;2022-07-10T14:57:15;22.50;90.10
5476;DHT22;2760;50.000;9.194;2022-07-10T14:59:42;22.60;90.70
5476;DHT22;2760;50.000;9.194;2022-07-10T15:02:09;22.50;90.30
5476;DHT22;2760;50.000;9.194;2022-07-10T15:04:36;22.70;90.20
5476;DHT22;2760;50.000;9.194;2022-07-10T15:07:04;22.50;90.50
5476;DHT22;2760;50.000;9.194;2022-07-10T15:09:32;22.40;90.30
5476;DHT22;2760;50.000;9.194;2022-07-10T15:12:00;22.40;90.40
5476;DHT22;2760;50.000;9.194;2022-07-10T15:14:27;22.50;90.80
5476;DHT22;2760;50.000;9.194;2022-07-10T15:16:55;22.90;91.00
5476;DHT22;2760;50.000;9.194;2022-07-10T15:19:22;22.80;90.10
5476;DHT22;2760;50.000;9.194;2022-07-10T15:21:49;22.90;90.20
5476;DHT22;2760;50.000;9.194;2022-07-10T15:24:16;22.80;90.50
5476;DHT22;2760;50.000;9.194;2022-07-10T15:26:45;23.00;90.30
5476;DHT22;2760;50.000;9.194;2022-07-10T15:29:12;22.90;90.30
5476;DHT22;2760;50.000;9.194;2022-07-10T15:31:39;22.70;90.50
5476;DHT22;2760;50.000;9.194;2022-07-10T15:34:08;22.70;90.50
5476;DHT22;2760;50.000;9.194;2022-07-10T15:36:35;22.30;90.50
5476;DHT22;2760;50.000;9.194;2022-07-10T15:39:02;22.30;90.90
5476;DHT22;2760;50.000;9.194;2022-07-10T15:41:30;21.60;91.70
5476;DHT22;2760;50.000;9.194;2022-07-10T15:44:00;22.00;91.20
5476;DHT22;2760;50.000;9.194;2022-07-10T15:46:27;22.40;91.30
5476;DHT22;2760;50.000;9.194;2022-07-10T15:48:54;22.30;91.00
5476;DHT22;2760;50.000;9.194;2022-07-10T15:51:21;22.30;90.70
5476;DHT22;2760;50.000;9.194;2022-07-10T15:53:48;22.40;90.80
5476;DHT22;2760;50.000;9.194;2022-07-10T15:56:15;22.40;90.90
5476;DHT22;2760;50.000;9.194;2022-07-10T15:58:42;22.30;90.70
5476;DHT22;2760;50.000;9.194;2022-07-10T16:01:11;22.20;91.00
5476;DHT22;2760;50.000;9.194;2022-07-10T16:03:39;22.00;91.20
5476;DHT22;2760;50.000;9.194;2022-07-10T16:06:06;21.90;91.40
5476;DHT22;2760;50.000;9.194;2022-07-10T16:08:33;22.00;91.50
5476;DHT22;2760;50.000;9.194;2022-07-10T16:11:01;22.00;91.30
5476;DHT22;2760;50.000;9.194;2022-07-10T16:13:28;22.10;91.30
5476;DHT22;2760;50.000;9.194;2022-07-10T16:16:06;22.20;91.20